Buoy 46535

sailwx.info

Track history (hours):
 
Tides and Currents Weather Stations Pressure Air Temp Water Temp Dewpoint Dewpoint Depression Visibility Wind Speed Wind Dir Waves Ship Positions

Drifting buoy 46535

Last reported at 2015-Sep-05 09:50 UTC. Time now 2015-Sep-05 12:17 UTC.
Position N 55°19' W 169°50'.

Barometer 1016.6 mb
Water temperature 11.0 ° C

Date/timePositionNaut miles runAvg speedWind from/ knotsBaromVisibWave heightAir tempDewpointWater temp
2015-Sep-05 09:50N 55°19' W 169°50'0 0.3 1016.6 11.0
2015-Sep-05 08:50N 55°19' W 169°50'2 0.4 1016.7 11.0
2015-Sep-05 04:50N 55°21' W 169°50'1 0.5 1016.4 11.2
2015-Sep-05 03:50N 55°21' W 169°51'0 0.2 1016.4 11.2
2015-Sep-05 02:50N 55°21' W 169°52'0 0.1 1016.2 11.2
2015-Sep-05 00:50N 55°21' W 169°52'1 0.4 1016.2 11.2
2015-Sep-04 22:50N 55°21' W 169°51'2 0.6 1016.5 11.1
2015-Sep-04 18:50N 55°23' W 169°48'1 0.7 1015.2 11.0
2015-Sep-04 16:50N 55°24' W 169°49'2 1.0 1014.7 11.0
2015-Sep-04 14:50N 55°25' W 169°51'0 0.1 1014.3 11.0
2015-Sep-04 12:50N 55°25' W 169°52'0 0.0 1013.6 11.0
2015-Sep-04 06:50N 55°25' W 169°52'2 1.7 1010.9 11.1
2015-Sep-04 05:50N 55°26' W 169°49'0 0.3 1010.5 11.1
2015-Sep-04 04:50N 55°27' W 169°50'2 0.8 1010.1 11.1
2015-Sep-04 02:50N 55°28' W 169°49'1 0.5 1009.9 11.1
2015-Sep-04 01:50N 55°29' W 169°50'1 0.7 1010.0 11.0
2015-Sep-04 00:50N 55°29' W 169°51'1 0.3 1010.0 11.0
2015-Sep-03 19:50N 55°29' W 169°53'1 0.2 1009.9 11.0
2015-Sep-03 16:50N 55°29' W 169°53'1 0.6 1010.3 11.0
2015-Sep-03 14:50N 55°29' W 169°51'1 1.3 1010.1 11.0
2015-Sep-03 13:50N 55°30' W 169°51'3 0.6 1010.1 11.0
2015-Sep-03 08:50N 55°33' W 169°53'1 1.1 1010.5 11.1
2015-Sep-03 07:50N 55°34' W 169°55'1 0.2 1010.7 11.2
2015-Sep-03 03:50N 55°33' W 169°56'1 0.4 1010.6 11.3
2015-Sep-03 01:50N 55°33' W 169°55'1 0.8 1011.2 11.3
2015-Sep-03 00:50N 55°34' W 169°54'1 0.7 1011.8 11.2
2015-Sep-02 23:50N 55°35' W 169°54'2 0.8 1012.0 11.1
2015-Sep-02 21:50N 55°36' W 169°54'2 2.3 1012.0 10.9
2015-Sep-02 20:50N 55°38' W 169°56'0 0.2 1012.0 10.8
2015-Sep-02 18:50N 55°38' W 169°57'1 1.2 1012.5 10.8
2015-Sep-02 17:50N 55°38' W 169°59'1 0.4 1012.1 10.8
2015-Sep-02 15:50N 55°38' W 170°00'1 0.3 1011.3 10.8
2015-Sep-02 11:50N 55°39' W 170°02'0 0.2 1010.7 10.8
2015-Sep-02 10:50N 55°39' W 170°03'4 0.9 1009.9 10.9
2015-Sep-02 05:50N 55°43' W 170°06'3 0.7 1006.8 10.9
2015-Sep-02 01:50N 55°43' W 170°11'2 1.2 1004.2 10.9
2015-Sep-01 23:50N 55°43' W 170°15'0 0.5 1003.8 10.9
2015-Sep-01 22:50N 55°42' W 170°15'0 0.1 1003.8 10.9
2015-Sep-01 21:50N 55°42' W 170°15'0 0.2 1004.1 10.9
2015-Sep-01 20:50N 55°42' W 170°15'0 0.4 1004.8 10.9
2015-Sep-01 19:50N 55°42' W 170°14'0 0.4 1005.5 10.9
2015-Sep-01 18:50N 55°42' W 170°14'0 0.1 1006.6 10.9
2015-Sep-01 17:50N 55°42' W 170°14'1 0.9 1007.8 10.9
2015-Sep-01 16:50N 55°43' W 170°16'0 0.4 1009.0 10.9
2015-Sep-01 15:50N 55°43' W 170°16'1 0.5 1009.8 10.9
2015-Sep-01 13:50N 55°43' W 170°18'2 1.0 1012.2 11.0
2015-Sep-01 11:50N 55°41' W 170°21'0 0.0 1013.8 11.0
2015-Sep-01 10:50N 55°41' W 170°21'0 0.1 1014.4 11.0
2015-Sep-01 05:50N 55°41' W 170°21'1 0.4 1015.6 11.2
2015-Sep-01 03:50N 55°41' W 170°22'1 0.4 1015.6 11.2
2015-Sep-01 00:50N 55°41' W 170°24'0 0.3 1016.4 11.2
2015-Aug-31 23:50N 55°41' W 170°24'1 0.5 1016.7 11.0
2015-Aug-31 22:50N 55°41' W 170°25'1 0.4 1016.6 10.9
2015-Aug-31 19:50N 55°40' W 170°27'1 0.7 1016.5 10.8
2015-Aug-31 17:50N 55°39' W 170°27'0 0.2 1016.1 10.8
2015-Aug-31 15:50N 55°38' W 170°27'0 0.5 1016.3 10.8
2015-Aug-31 14:50N 55°38' W 170°28'0 0.2 1016.5 10.8
2015-Aug-31 13:50N 55°38' W 170°28'3 0.4 1016.2 10.8
2015-Aug-31 05:50N 55°36' W 170°30'0 0.1 1016.0 10.8
2015-Aug-31 04:50N 55°36' W 170°31'1 0.7 1015.8 10.8
2015-Aug-31 03:50N 55°35' W 170°31'1 0.8 1015.9 10.8
2015-Aug-31 02:50N 55°34' W 170°30'1 0.8 1016.1 10.8
2015-Aug-31 01:50N 55°34' W 170°30'1 0.7 1015.8 10.8
2015-Aug-30 23:50N 55°32' W 170°28'0 0.0 1015.8 10.8
2015-Aug-30 22:50N 55°32' W 170°28'0 0.2 1015.7 10.7
2015-Aug-30 20:50N 55°32' W 170°28'1 0.6 1015.5 10.7
2015-Aug-30 19:50N 55°32' W 170°27'0 0.1 1015.5 10.7
2015-Aug-30 17:50N 55°32' W 170°27'1 0.6 1014.9 10.7
2015-Aug-30 16:50N 55°32' W 170°28'0 0.5 1014.2 10.7
2015-Aug-30 15:50N 55°31' W 170°28'2 0.9 1014.6 10.7
2015-Aug-30 13:50N 55°29' W 170°28'0 0.0 1014.7 10.7
2015-Aug-30 12:50N 55°29' W 170°28'4 0.5 1014.0 10.7
2015-Aug-30 04:50N 55°28' W 170°21'0 0.2 1010.4 10.8
2015-Aug-30 03:50N 55°28' W 170°21'0 0.2 1009.9 10.8
2015-Aug-30 01:50N 55°29' W 170°22'2 0.8 1009.6 10.8
2015-Aug-29 23:50N 55°28' W 170°24'0 0.1 1009.6 10.8
2015-Aug-29 21:50N 55°27' W 170°24'2 0.3 1010.9 10.8
2015-Aug-29 15:50N 55°26' W 170°22'0 0.0 1014.3 10.8
2015-Aug-29 14:50N 55°26' W 170°22'2 0.4 1015.2 10.8
2015-Aug-29 09:50N 55°25' W 170°26'0 0.0 1018.7 10.9
2015-Aug-29 08:50N 55°25' W 170°26'2 0.5 1019.3 10.9
2015-Aug-29 03:50N 55°23' W 170°26'1 0.4 1022.6 11.0
2015-Aug-29 01:50N 55°23' W 170°24'0 0.1 1024.3 11.1
2015-Aug-29 00:50N 55°23' W 170°24'0 0.2 1025.4 11.0
2015-Aug-28 22:50N 55°23' W 170°25'1 0.6 1027.5 11.0
2015-Aug-28 21:50N 55°22' W 170°26'1 0.7 1028.2 10.9
2015-Aug-28 20:50N 55°21' W 170°26'2 0.6 1028.6 10.9
2015-Aug-28 17:50N 55°20' W 170°24'0 0.4 1029.8 10.8
2015-Aug-28 16:50N 55°20' W 170°24'1 0.5 1030.1 10.8
2015-Aug-28 14:50N 55°19' W 170°23'1 0.6 1031.2 10.8
2015-Aug-28 12:50N 55°18' W 170°21'0 0.0 1032.3 10.8
2015-Aug-28 11:50N 55°18' W 170°21'1 1.0 1032.7 10.8
2015-Aug-28 10:50N 55°18' W 170°19'2 0.3 1033.0 10.8
2015-Aug-28 04:50N 55°17' W 170°16'0 0.3 1032.8 10.8
2015-Aug-28 03:50N 55°17' W 170°17'1 1.1 1033.0 10.8
2015-Aug-28 02:50N 55°16' W 170°15'1 1.0 1032.9 10.8
2015-Aug-28 01:50N 55°16' W 170°13'0 0.0 1032.7 10.8
2015-Aug-28 00:50N 55°16' W 170°13'1 1.3 1032.9 10.8
2015-Aug-27 23:50N 55°16' W 170°11'0 0.4 1033.0 10.8
2015-Aug-27 22:50N 55°16' W 170°11'1 1.1 1033.0 10.8
2015-Aug-27 21:50N 55°16' W 170°09'1 0.2 1032.8 10.7
2015-Aug-27 16:50N 55°16' W 170°07'1 0.4 1031.5 10.6
2015-Aug-27 14:50N 55°16' W 170°06'1 0.6 1031.0 10.6
2015-Aug-27 12:50N 55°16' W 170°04'2 0.4 1030.7 10.6
2015-Aug-27 08:50N 55°16' W 170°01'1 0.9 1030.2 10.7
2015-Aug-27 07:50N 55°16' W 169°60'2 0.4 1029.8 10.7
2015-Aug-27 03:50N 55°17' W 169°57'1 0.2 1028.3 10.7
2015-Aug-27 00:50N 55°17' W 169°58'1 0.8 1028.1 10.6
2015-Aug-26 23:50N 55°16' W 169°57'0 0.2 1027.5 10.6
2015-Aug-26 22:50N 55°17' W 169°57'3 0.8 1027.3 10.5
2015-Aug-26 18:50N 55°17' W 169°51'3 0.7 1025.8 10.5
2015-Aug-26 14:50N 55°20' W 169°50'0 0.3 1023.7 10.5
2015-Aug-26 13:50N 55°19' W 169°50'0 0.2 1023.3 10.4
2015-Aug-26 11:50N 55°19' W 169°50'1 0.3 1022.8 10.4
2015-Aug-26 09:50N 55°19' W 169°49'   1022.4 10.4
Track history (hours):
 
Tides and Currents Weather Stations Pressure Air Temp Water Temp Dewpoint Dewpoint Depression Visibility Wind Speed Wind Dir Waves Ship Positions

Drifting buoy 46535

Last reported at 2015-Sep-05 09:50 UTC. Time now 2015-Sep-05 12:17 UTC.
Position N 55°19' W 169°50'.

Barometer 1016.6 mb
Water temperature 11.0 ° C

Date/timePositionNaut miles runAvg speedWind from/ knotsBaromVisibWave heightAir tempDewpointWater temp
2015-Sep-05 09:50N 55°19' W 169°50'0 0.3 1016.6 11.0
2015-Sep-05 08:50N 55°19' W 169°50'2 0.4 1016.7 11.0
2015-Sep-05 04:50N 55°21' W 169°50'1 0.5 1016.4 11.2
2015-Sep-05 03:50N 55°21' W 169°51'0 0.2 1016.4 11.2
2015-Sep-05 02:50N 55°21' W 169°52'0 0.1 1016.2 11.2
2015-Sep-05 00:50N 55°21' W 169°52'1 0.4 1016.2 11.2
2015-Sep-04 22:50N 55°21' W 169°51'2 0.6 1016.5 11.1
2015-Sep-04 18:50N 55°23' W 169°48'1 0.7 1015.2 11.0
2015-Sep-04 16:50N 55°24' W 169°49'2 1.0 1014.7 11.0
2015-Sep-04 14:50N 55°25' W 169°51'0 0.1 1014.3 11.0
2015-Sep-04 12:50N 55°25' W 169°52'0 0.0 1013.6 11.0
2015-Sep-04 06:50N 55°25' W 169°52'2 1.7 1010.9 11.1
2015-Sep-04 05:50N 55°26' W 169°49'0 0.3 1010.5 11.1
2015-Sep-04 04:50N 55°27' W 169°50'2 0.8 1010.1 11.1
2015-Sep-04 02:50N 55°28' W 169°49'1 0.5 1009.9 11.1
2015-Sep-04 01:50N 55°29' W 169°50'1 0.7 1010.0 11.0
2015-Sep-04 00:50N 55°29' W 169°51'1 0.3 1010.0 11.0
2015-Sep-03 19:50N 55°29' W 169°53'1 0.2 1009.9 11.0
2015-Sep-03 16:50N 55°29' W 169°53'1 0.6 1010.3 11.0
2015-Sep-03 14:50N 55°29' W 169°51'1 1.3 1010.1 11.0
2015-Sep-03 13:50N 55°30' W 169°51'3 0.6 1010.1 11.0
2015-Sep-03 08:50N 55°33' W 169°53'1 1.1 1010.5 11.1
2015-Sep-03 07:50N 55°34' W 169°55'1 0.2 1010.7 11.2
2015-Sep-03 03:50N 55°33' W 169°56'1 0.4 1010.6 11.3
2015-Sep-03 01:50N 55°33' W 169°55'1 0.8 1011.2 11.3
2015-Sep-03 00:50N 55°34' W 169°54'1 0.7 1011.8 11.2
2015-Sep-02 23:50N 55°35' W 169°54'2 0.8 1012.0 11.1
2015-Sep-02 21:50N 55°36' W 169°54'2 2.3 1012.0 10.9
2015-Sep-02 20:50N 55°38' W 169°56'0 0.2 1012.0 10.8
2015-Sep-02 18:50N 55°38' W 169°57'1 1.2 1012.5 10.8
2015-Sep-02 17:50N 55°38' W 169°59'1 0.4 1012.1 10.8
2015-Sep-02 15:50N 55°38' W 170°00'1 0.3 1011.3 10.8
2015-Sep-02 11:50N 55°39' W 170°02'0 0.2 1010.7 10.8
2015-Sep-02 10:50N 55°39' W 170°03'4 0.9 1009.9 10.9
2015-Sep-02 05:50N 55°43' W 170°06'3 0.7 1006.8 10.9
2015-Sep-02 01:50N 55°43' W 170°11'2 1.2 1004.2 10.9
2015-Sep-01 23:50N 55°43' W 170°15'0 0.5 1003.8 10.9
2015-Sep-01 22:50N 55°42' W 170°15'0 0.1 1003.8 10.9
2015-Sep-01 21:50N 55°42' W 170°15'0 0.2 1004.1 10.9
2015-Sep-01 20:50N 55°42' W 170°15'0 0.4 1004.8 10.9
2015-Sep-01 19:50N 55°42' W 170°14'0 0.4 1005.5 10.9
2015-Sep-01 18:50N 55°42' W 170°14'0 0.1 1006.6 10.9
2015-Sep-01 17:50N 55°42' W 170°14'1 0.9 1007.8 10.9
2015-Sep-01 16:50N 55°43' W 170°16'0 0.4 1009.0 10.9
2015-Sep-01 15:50N 55°43' W 170°16'1 0.5 1009.8 10.9
2015-Sep-01 13:50N 55°43' W 170°18'2 1.0 1012.2 11.0
2015-Sep-01 11:50N 55°41' W 170°21'0 0.0 1013.8 11.0
2015-Sep-01 10:50N 55°41' W 170°21'0 0.1 1014.4 11.0
2015-Sep-01 05:50N 55°41' W 170°21'1 0.4 1015.6 11.2
2015-Sep-01 03:50N 55°41' W 170°22'1 0.4 1015.6 11.2
2015-Sep-01 00:50N 55°41' W 170°24'0 0.3 1016.4 11.2
2015-Aug-31 23:50N 55°41' W 170°24'1 0.5 1016.7 11.0
2015-Aug-31 22:50N 55°41' W 170°25'1 0.4 1016.6 10.9
2015-Aug-31 19:50N 55°40' W 170°27'1 0.7 1016.5 10.8
2015-Aug-31 17:50N 55°39' W 170°27'0 0.2 1016.1 10.8
2015-Aug-31 15:50N 55°38' W 170°27'0 0.5 1016.3 10.8
2015-Aug-31 14:50N 55°38' W 170°28'0 0.2 1016.5 10.8
2015-Aug-31 13:50N 55°38' W 170°28'3 0.4 1016.2 10.8
2015-Aug-31 05:50N 55°36' W 170°30'0 0.1 1016.0 10.8
2015-Aug-31 04:50N 55°36' W 170°31'1 0.7 1015.8 10.8
2015-Aug-31 03:50N 55°35' W 170°31'1 0.8 1015.9 10.8
2015-Aug-31 02:50N 55°34' W 170°30'1 0.8 1016.1 10.8
2015-Aug-31 01:50N 55°34' W 170°30'1 0.7 1015.8 10.8
2015-Aug-30 23:50N 55°32' W 170°28'0 0.0 1015.8 10.8
2015-Aug-30 22:50N 55°32' W 170°28'0 0.2 1015.7 10.7
2015-Aug-30 20:50N 55°32' W 170°28'1 0.6 1015.5 10.7
2015-Aug-30 19:50N 55°32' W 170°27'0 0.1 1015.5 10.7
2015-Aug-30 17:50N 55°32' W 170°27'1 0.6 1014.9 10.7
2015-Aug-30 16:50N 55°32' W 170°28'0 0.5 1014.2 10.7
2015-Aug-30 15:50N 55°31' W 170°28'2 0.9 1014.6 10.7
2015-Aug-30 13:50N 55°29' W 170°28'0 0.0 1014.7 10.7
2015-Aug-30 12:50N 55°29' W 170°28'4 0.5 1014.0 10.7
2015-Aug-30 04:50N 55°28' W 170°21'0 0.2 1010.4 10.8
2015-Aug-30 03:50N 55°28' W 170°21'0 0.2 1009.9 10.8
2015-Aug-30 01:50N 55°29' W 170°22'2 0.8 1009.6 10.8
2015-Aug-29 23:50N 55°28' W 170°24'0 0.1 1009.6 10.8
2015-Aug-29 21:50N 55°27' W 170°24'2 0.3 1010.9 10.8
2015-Aug-29 15:50N 55°26' W 170°22'0 0.0 1014.3 10.8
2015-Aug-29 14:50N 55°26' W 170°22'2 0.4 1015.2 10.8
2015-Aug-29 09:50N 55°25' W 170°26'0 0.0 1018.7 10.9
2015-Aug-29 08:50N 55°25' W 170°26'2 0.5 1019.3 10.9
2015-Aug-29 03:50N 55°23' W 170°26'1 0.4 1022.6 11.0
2015-Aug-29 01:50N 55°23' W 170°24'0 0.1 1024.3 11.1
2015-Aug-29 00:50N 55°23' W 170°24'0 0.2 1025.4 11.0
2015-Aug-28 22:50N 55°23' W 170°25'1 0.6 1027.5 11.0
2015-Aug-28 21:50N 55°22' W 170°26'1 0.7 1028.2 10.9
2015-Aug-28 20:50N 55°21' W 170°26'2 0.6 1028.6 10.9
2015-Aug-28 17:50N 55°20' W 170°24'0 0.4 1029.8 10.8
2015-Aug-28 16:50N 55°20' W 170°24'1 0.5 1030.1 10.8
2015-Aug-28 14:50N 55°19' W 170°23'1 0.6 1031.2 10.8
2015-Aug-28 12:50N 55°18' W 170°21'0 0.0 1032.3 10.8
2015-Aug-28 11:50N 55°18' W 170°21'1 1.0 1032.7 10.8
2015-Aug-28 10:50N 55°18' W 170°19'2 0.3 1033.0 10.8
2015-Aug-28 04:50N 55°17' W 170°16'0 0.3 1032.8 10.8
2015-Aug-28 03:50N 55°17' W 170°17'1 1.1 1033.0 10.8
2015-Aug-28 02:50N 55°16' W 170°15'1 1.0 1032.9 10.8
2015-Aug-28 01:50N 55°16' W 170°13'0 0.0 1032.7 10.8
2015-Aug-28 00:50N 55°16' W 170°13'1 1.3 1032.9 10.8
2015-Aug-27 23:50N 55°16' W 170°11'0 0.4 1033.0 10.8
2015-Aug-27 22:50N 55°16' W 170°11'1 1.1 1033.0 10.8
2015-Aug-27 21:50N 55°16' W 170°09'1 0.2 1032.8 10.7
2015-Aug-27 16:50N 55°16' W 170°07'1 0.4 1031.5 10.6
2015-Aug-27 14:50N 55°16' W 170°06'1 0.6 1031.0 10.6
2015-Aug-27 12:50N 55°16' W 170°04'2 0.4 1030.7 10.6
2015-Aug-27 08:50N 55°16' W 170°01'1 0.9 1030.2 10.7
2015-Aug-27 07:50N 55°16' W 169°60'2 0.4 1029.8 10.7
2015-Aug-27 03:50N 55°17' W 169°57'1 0.2 1028.3 10.7
2015-Aug-27 00:50N 55°17' W 169°58'1 0.8 1028.1 10.6
2015-Aug-26 23:50N 55°16' W 169°57'0 0.2 1027.5 10.6
2015-Aug-26 22:50N 55°17' W 169°57'3 0.8 1027.3 10.5
2015-Aug-26 18:50N 55°17' W 169°51'3 0.7 1025.8 10.5
2015-Aug-26 14:50N 55°20' W 169°50'0 0.3 1023.7 10.5
2015-Aug-26 13:50N 55°19' W 169°50'0 0.2 1023.3 10.4
2015-Aug-26 11:50N 55°19' W 169°50'1 0.3 1022.8 10.4
2015-Aug-26 09:50N 55°19' W 169°49'   1022.4 10.4

Dump ship's entire track history